Time;durP1;ratioP1;P1;durP2;ratioP2;P2;SDS_P1;SDS_P2;PMS_P1;PMS_P2;Temp;Humidity;BMP_temperature;BMP_pressure;BME280_temperature;BME280_humidity;BME280_pressure;Samples;Min_cycle;Max_cycle;Signal;HPM_P1;HPM_P2
2022/05/05 00:00:15;;;;;;;9.77;6.63;;;;;;;;;;5134158;28;20030;-53
2022/05/05 00:02:41;;;;;;;10.90;6.10;;;;;;;;;;5134563;28;20475;-54
2022/05/05 00:05:07;;;;;;;8.20;6.63;;;;;;;;;;5134457;28;20118;-52
2022/05/05 00:07:33;;;;;;;8.18;6.30;;;;;;;;;;5134364;28;20094;-53
2022/05/05 00:14:23;;;;;;;10.52;6.15;;;;;;;;;;5134204;28;20024;-53
2022/05/05 00:15:30;;;;;;;7.50;6.43;;;;;;;;;;5134204;28;20046;-54
2022/05/05 00:17:56;;;;;;;8.13;6.32;;;;;;;;;;5115376;28;20826;-54
2022/05/05 00:20:22;;;;;;;8.57;6.53;;;;;;;;;;5134099;28;20027;-53
2022/05/05 00:22:48;;;;;;;9.77;6.45;;;;;;;;;;5115837;28;20038;-55
2022/05/05 00:25:14;;;;;;;11.77;7.82;;;;;;;;;;5134145;28;20068;-54
2022/05/05 00:27:40;;;;;;;16.73;8.63;;;;;;;;;;5135133;27;20051;-54
2022/05/05 00:30:07;;;;;;;15.77;9.50;;;;;;;;;;5137973;27;20428;-54
2022/05/05 00:32:33;;;;;;;17.65;10.23;;;;;;;;;;5137891;27;20019;-55
2022/05/05 00:34:59;;;;;;;17.05;10.80;;;;;;;;;;5137970;27;20023;-54
2022/05/05 00:37:25;;;;;;;16.98;9.65;;;;;;;;;;5137844;27;20023;-56
2022/05/05 00:39:51;;;;;;;20.73;10.48;;;;;;;;;;5137842;27;20383;-54
2022/05/05 00:42:17;;;;;;;16.00;10.05;;;;;;;;;;5137464;27;20031;-54
2022/05/05 00:44:44;;;;;;;20.55;9.65;;;;;;;;;;5137311;27;20128;-54
2022/05/05 00:47:14;;;;;;;15.10;9.70;;;;;;;;;;5119174;27;20597;-54
2022/05/05 00:49:40;;;;;;;16.08;9.40;;;;;;;;;;5137413;27;20459;-54
2022/05/05 00:52:06;;;;;;;19.67;10.38;;;;;;;;;;5137504;27;20027;-53
2022/05/05 00:54:33;;;;;;;16.38;9.13;;;;;;;;;;5137435;27;20020;-54
2022/05/05 00:56:59;;;;;;;15.80;8.07;;;;;;;;;;5137517;27;20038;-53
2022/05/05 00:59:25;;;;;;;13.73;8.52;;;;;;;;;;5137437;27;20106;-54
2022/05/05 01:01:51;;;;;;;13.68;8.27;;;;;;;;;;5137213;27;20035;-53
2022/05/05 01:04:17;;;;;;;17.02;7.93;;;;;;;;;;5137312;27;20051;-54
2022/05/05 01:06:44;;;;;;;16.48;8.65;;;;;;;;;;5137233;27;20030;-54
2022/05/05 01:09:10;;;;;;;13.43;9.02;;;;;;;;;;5137141;27;20066;-54
2022/05/05 01:11:36;;;;;;;12.57;7.93;;;;;;;;;;5137288;27;20473;-53
2022/05/05 01:14:03;;;;;;;10.60;7.68;;;;;;;;;;5136993;27;20072;-53
2022/05/05 01:16:29;;;;;;;11.60;7.18;;;;;;;;;;5137087;27;20019;-53
2022/05/05 01:18:55;;;;;;;10.27;7.18;;;;;;;;;;5136946;27;20454;-53
2022/05/05 01:21:22;;;;;;;9.10;6.47;;;;;;;;;;5136917;27;20503;-53
2022/05/05 01:23:48;;;;;;;9.93;6.65;;;;;;;;;;5136890;27;20011;-52
2022/05/05 01:29:00;;;;;;;9.65;7.45;;;;;;;;;;5136763;27;20050;-54
2022/05/05 01:31:27;;;;;;;8.65;6.95;;;;;;;;;;5136813;27;20030;-54
2022/05/05 01:33:53;;;;;;;16.02;7.10;;;;;;;;;;5136757;27;20030;-54
2022/05/05 01:36:19;;;;;;;9.38;6.93;;;;;;;;;;5136860;27;20023;-53
2022/05/05 01:38:45;;;;;;;13.65;7.00;;;;;;;;;;5136367;27;20454;-53
2022/05/05 01:41:12;;;;;;;10.55;6.85;;;;;;;;;;5136621;27;20023;-56
2022/05/05 01:43:39;;;;;;;9.68;6.95;;;;;;;;;;5136325;27;20043;-55
2022/05/05 01:46:05;;;;;;;8.23;6.47;;;;;;;;;;5136556;27;20059;-56
2022/05/05 01:48:32;;;;;;;9.63;7.60;;;;;;;;;;5136400;27;20027;-56
2022/05/05 01:51:00;;;;;;;9.55;6.78;;;;;;;;;;5136371;27;20024;-53
2022/05/05 01:53:27;;;;;;;11.07;6.97;;;;;;;;;;5136246;27;20522;-54
2022/05/05 01:55:53;;;;;;;10.48;6.43;;;;;;;;;;5136501;27;20068;-54
2022/05/05 01:58:19;;;;;;;8.43;6.63;;;;;;;;;;5136205;27;20068;-54
2022/05/05 02:00:45;;;;;;;10.35;7.18;;;;;;;;;;5136171;27;20072;-54
2022/05/05 02:03:14;;;;;;;12.48;7.57;;;;;;;;;;5136036;27;20031;-53
2022/05/05 02:05:44;;;;;;;12.85;8.00;;;;;;;;;;5136016;27;20090;-54
2022/05/05 02:08:10;;;;;;;12.63;7.60;;;;;;;;;;5136254;27;20023;-55
2022/05/05 02:10:37;;;;;;;11.48;7.63;;;;;;;;;;5136180;27;20075;-61
2022/05/05 02:13:03;;;;;;;12.73;7.47;;;;;;;;;;5135788;27;20094;-55
2022/05/05 02:15:29;;;;;;;11.98;7.18;;;;;;;;;;5135937;27;20019;-54
2022/05/05 02:17:56;;;;;;;10.18;7.85;;;;;;;;;;5135865;27;20030;-54
2022/05/05 02:20:22;;;;;;;9.93;7.97;;;;;;;;;;5135792;27;20386;-54
2022/05/05 02:22:48;;;;;;;15.55;7.38;;;;;;;;;;5135885;27;20038;-56
2022/05/05 02:25:14;;;;;;;17.15;8.10;;;;;;;;;;5135617;27;20020;-52
2022/05/05 02:27:47;;;;;;;8.98;7.03;;;;;;;;;;5135913;27;20020;-58
2022/05/05 02:30:13;;;;;;;10.18;6.90;;;;;;;;;;5135514;27;20236;-51
2022/05/05 02:32:39;;;;;;;10.50;7.32;;;;;;;;;;5135745;27;20019;-53
2022/05/05 02:35:05;;;;;;;9.23;6.85;;;;;;;;;;5135904;27;20026;-51
2022/05/05 02:40:16;;;;;;;12.40;7.13;;;;;;;;;;5135634;27;20164;-51
2022/05/05 02:42:43;;;;;;;12.10;6.72;;;;;;;;;;5135507;27;20039;-51
2022/05/05 02:45:09;;;;;;;8.30;7.22;;;;;;;;;;5134960;27;20050;-52
2022/05/05 02:47:35;;;;;;;12.38;7.10;;;;;;;;;;5135265;27;20486;-50
2022/05/05 02:50:01;;;;;;;10.73;7.25;;;;;;;;;;5134729;27;20397;-50
2022/05/05 02:52:27;;;;;;;9.88;7.30;;;;;;;;;;5134944;27;20029;-50
2022/05/05 02:54:55;;;;;;;10.82;7.78;;;;;;;;;;5135040;27;20019;-49
2022/05/05 02:57:23;;;;;;;9.77;7.20;;;;;;;;;;5134934;27;20035;-50
2022/05/05 02:59:49;;;;;;;11.90;7.32;;;;;;;;;;5135040;27;20084;-51
2022/05/05 03:02:16;;;;;;;10.27;6.88;;;;;;;;;;5135036;27;20035;-50
2022/05/05 03:04:42;;;;;;;7.38;6.50;;;;;;;;;;5134918;27;20027;-50
2022/05/05 03:07:08;;;;;;;13.27;7.65;;;;;;;;;;5134832;27;20030;-51
2022/05/05 03:09:35;;;;;;;10.75;7.55;;;;;;;;;;5134744;27;20458;-50
2022/05/05 03:12:01;;;;;;;11.13;6.55;;;;;;;;;;5134915;27;20027;-50
2022/05/05 03:14:27;;;;;;;11.00;7.15;;;;;;;;;;5134604;27;20533;-50
2022/05/05 03:16:53;;;;;;;8.93;6.20;;;;;;;;;;5134743;27;20023;-51
2022/05/05 03:19:19;;;;;;;10.13;7.35;;;;;;;;;;5134781;27;20094;-50
2022/05/05 03:21:45;;;;;;;11.70;8.48;;;;;;;;;;5116150;27;20031;-50
2022/05/05 03:24:11;;;;;;;12.02;7.40;;;;;;;;;;5134795;27;20023;-51
2022/05/05 03:26:37;;;;;;;10.55;7.28;;;;;;;;;;5134689;27;20019;-50
2022/05/05 03:29:06;;;;;;;14.57;7.70;;;;;;;;;;5134461;27;20038;-53
2022/05/05 03:31:32;;;;;;;14.05;8.75;;;;;;;;;;5134492;27;20050;-51
2022/05/05 03:33:58;;;;;;;14.25;8.45;;;;;;;;;;5134535;27;20020;-52
2022/05/05 03:36:25;;;;;;;12.30;7.93;;;;;;;;;;5134680;27;20030;-51
2022/05/05 03:38:52;;;;;;;12.00;8.73;;;;;;;;;;5134416;27;20019;-50
2022/05/05 03:41:19;;;;;;;12.10;8.60;;;;;;;;;;5134600;28;20100;-50
2022/05/05 03:43:45;;;;;;;11.20;8.05;;;;;;;;;;5134244;28;20039;-51
2022/05/05 03:46:11;;;;;;;15.20;9.85;;;;;;;;;;5134267;28;20038;-51
2022/05/05 03:48:37;;;;;;;13.63;8.73;;;;;;;;;;5134414;28;20102;-51
2022/05/05 03:51:03;;;;;;;11.75;8.63;;;;;;;;;;5134399;28;20109;-57
2022/05/05 03:53:30;;;;;;;12.20;8.68;;;;;;;;;;5134235;28;20016;-51
2022/05/05 03:55:58;;;;;;;16.50;8.60;;;;;;;;;;5134455;28;20034;-54
2022/05/05 03:58:26;;;;;;;13.48;9.43;;;;;;;;;;5134221;28;20479;-50
2022/05/05 04:00:52;;;;;;;13.80;9.20;;;;;;;;;;5134091;28;20110;-50
2022/05/05 04:03:33;;;;;;;10.75;8.27;;;;;;;;;;5136655;27;20048;-50
2022/05/05 04:06:00;;;;;;;13.65;8.15;;;;;;;;;;5138241;27;20469;-51
2022/05/05 04:08:27;;;;;;;12.60;8.65;;;;;;;;;;5119571;27;20463;-50
2022/05/05 04:10:53;;;;;;;14.20;10.15;;;;;;;;;;5138201;27;20494;-58
2022/05/05 04:13:19;;;;;;;10.50;8.38;;;;;;;;;;5138249;27;20041;-56
2022/05/05 04:15:46;;;;;;;11.73;7.80;;;;;;;;;;5138252;27;20095;-50
2022/05/05 04:18:14;;;;;;;11.35;8.20;;;;;;;;;;5138198;27;20496;-51
2022/05/05 04:20:44;;;;;;;11.77;7.32;;;;;;;;;;5137920;27;20063;-49
2022/05/05 04:23:10;;;;;;;9.25;7.40;;;;;;;;;;5138281;27;20035;-50
2022/05/05 04:25:40;;;;;;;15.48;8.63;;;;;;;;;;5138279;27;20026;-50
2022/05/05 04:28:07;;;;;;;15.23;7.93;;;;;;;;;;5138028;27;20367;-49
2022/05/05 04:30:33;;;;;;;8.02;6.43;;;;;;;;;;5137839;27;20015;-50
2022/05/05 04:32:59;;;;;;;8.93;6.88;;;;;;;;;;5137854;27;20022;-50
2022/05/05 04:35:25;;;;;;;9.10;7.00;;;;;;;;;;5137733;27;20046;-57
2022/05/05 04:37:51;;;;;;;10.45;6.20;;;;;;;;;;5137959;27;20023;-50
2022/05/05 04:40:17;;;;;;;8.48;7.25;;;;;;;;;;5137875;27;20023;-50
2022/05/05 04:42:43;;;;;;;7.10;5.78;;;;;;;;;;5137941;27;20027;-49
2022/05/05 04:45:11;;;;;;;9.57;6.40;;;;;;;;;;5137507;27;20074;-50
2022/05/05 04:47:37;;;;;;;7.45;6.15;;;;;;;;;;5137870;27;20129;-50
2022/05/05 04:50:03;;;;;;;10.75;7.97;;;;;;;;;;5137647;27;20427;-53
2022/05/05 04:52:31;;;;;;;13.00;7.65;;;;;;;;;;5137524;27;20111;-49
2022/05/05 04:54:57;;;;;;;9.98;7.03;;;;;;;;;;5137672;27;20015;-49
2022/05/05 04:57:23;;;;;;;31.30;18.95;;;;;;;;;;5137444;27;20027;-49
2022/05/05 04:59:49;;;;;;;25.90;14.38;;;;;;;;;;5137485;27;20015;-49
2022/05/05 05:02:15;;;;;;;10.20;7.63;;;;;;;;;;5137243;27;20138;-50
2022/05/05 05:04:41;;;;;;;11.55;6.53;;;;;;;;;;5137441;27;20035;-48
2022/05/05 05:07:07;;;;;;;9.15;5.75;;;;;;;;;;5137277;27;20076;-49
2022/05/05 05:09:34;;;;;;;8.70;5.82;;;;;;;;;;5137353;27;20418;-49
2022/05/05 05:12:00;;;;;;;8.75;5.88;;;;;;;;;;5137248;27;20057;-49
2022/05/05 05:14:27;;;;;;;10.73;6.20;;;;;;;;;;5136503;27;20023;-49
2022/05/05 05:16:53;;;;;;;7.10;5.93;;;;;;;;;;5136957;27;20015;-49
2022/05/05 05:19:19;;;;;;;7.00;5.53;;;;;;;;;;5136881;27;20023;-50
2022/05/05 05:21:46;;;;;;;10.35;7.10;;;;;;;;;;5136991;27;20247;-50
2022/05/05 05:24:13;;;;;;;10.90;7.40;;;;;;;;;;5137111;27;20030;-49
2022/05/05 05:26:39;;;;;;;13.82;9.70;;;;;;;;;;5136919;27;20091;-50
2022/05/05 05:29:05;;;;;;;12.30;9.85;;;;;;;;;;5136826;27;20030;-50
2022/05/05 05:31:31;;;;;;;10.60;7.90;;;;;;;;;;5136912;27;20107;-52
2022/05/05 05:33:57;;;;;;;14.88;7.60;;;;;;;;;;5136720;27;20030;-50
2022/05/05 05:36:23;;;;;;;17.75;6.05;;;;;;;;;;5136853;27;20030;-51
2022/05/05 05:38:49;;;;;;;13.35;6.22;;;;;;;;;;5136601;27;20118;-50
2022/05/05 05:41:15;;;;;;;11.43;7.93;;;;;;;;;;5136521;27;20027;-50
2022/05/05 05:43:41;;;;;;;8.48;7.00;;;;;;;;;;5136251;27;20063;-50
2022/05/05 05:46:09;;;;;;;10.52;6.50;;;;;;;;;;5136772;27;20538;-50
2022/05/05 05:48:37;;;;;;;9.23;7.03;;;;;;;;;;5136291;27;20020;-50
2022/05/05 05:51:05;;;;;;;7.60;6.55;;;;;;;;;;5136216;27;20038;-50
2022/05/05 05:53:32;;;;;;;10.63;7.60;;;;;;;;;;5136253;27;20050;-51
2022/05/05 05:55:58;;;;;;;9.40;6.93;;;;;;;;;;5136163;27;20466;-50
2022/05/05 05:58:24;;;;;;;10.68;7.15;;;;;;;;;;5136164;27;20046;-51
2022/05/05 06:00:50;;;;;;;7.80;6.25;;;;;;;;;;5136089;27;20026;-50
2022/05/05 06:06:01;;;;;;;8.95;6.05;;;;;;;;;;5136457;27;20038;-50
2022/05/05 06:08:27;;;;;;;8.30;6.60;;;;;;;;;;5136143;27;20045;-52
2022/05/05 06:10:53;;;;;;;9.43;5.70;;;;;;;;;;5135857;27;20053;-51
2022/05/05 06:13:19;;;;;;;8.23;6.75;;;;;;;;;;5135771;27;20419;-54
2022/05/05 06:15:45;;;;;;;10.07;5.90;;;;;;;;;;5136234;27;20012;-54
2022/05/05 06:18:14;;;;;;;7.50;6.70;;;;;;;;;;5135953;27;20027;-52
2022/05/05 06:20:40;;;;;;;9.23;6.15;;;;;;;;;;5135984;27;20137;-49
2022/05/05 06:23:06;;;;;;;7.45;5.68;;;;;;;;;;5116820;27;20085;-51
2022/05/05 06:25:32;;;;;;;6.75;5.20;;;;;;;;;;5134848;27;20065;-51
2022/05/05 06:27:58;;;;;;;9.18;6.78;;;;;;;;;;5135802;27;20046;-51
2022/05/05 06:30:24;;;;;;;7.63;5.50;;;;;;;;;;5135450;27;20015;-54
2022/05/05 06:32:50;;;;;;;9.25;5.45;;;;;;;;;;5135392;27;20023;-48
2022/05/05 06:35:17;;;;;;;5.85;4.60;;;;;;;;;;5135569;27;20023;-49
2022/05/05 06:37:43;;;;;;;8.15;5.30;;;;;;;;;;5135636;27;20387;-49
2022/05/05 06:40:09;;;;;;;8.45;5.18;;;;;;;;;;5135350;27;20493;-51
2022/05/05 06:42:36;;;;;;;12.93;4.90;;;;;;;;;;5135530;27;20042;-53
2022/05/05 06:45:03;;;;;;;7.68;5.63;;;;;;;;;;5134942;27;20054;-52
2022/05/05 06:47:29;;;;;;;7.85;5.03;;;;;;;;;;5135281;27;20436;-51
2022/05/05 06:49:55;;;;;;;6.50;5.13;;;;;;;;;;5135084;27;20019;-54
2022/05/05 06:52:21;;;;;;;6.78;5.28;;;;;;;;;;5135194;27;20079;-51
2022/05/05 06:54:52;;;;;;;6.25;5.65;;;;;;;;;;5135197;27;20106;-51
2022/05/05 06:57:18;;;;;;;6.65;5.30;;;;;;;;;;5135272;27;20030;-51
2022/05/05 06:59:44;;;;;;;9.77;5.93;;;;;;;;;;5134927;27;20029;-51
2022/05/05 07:02:12;;;;;;;7.75;5.25;;;;;;;;;;5134889;27;20039;-51
2022/05/05 07:07:25;;;;;;;8.38;5.25;;;;;;;;;;5135169;27;20391;-48
2022/05/05 07:12:38;;;;;;;7.20;5.00;;;;;;;;;;5134744;27;20042;-53
2022/05/05 07:15:05;;;;;;;6.65;5.35;;;;;;;;;;5134523;27;20410;-49
2022/05/05 07:17:31;;;;;;;7.03;5.25;;;;;;;;;;5134816;27;20486;-50
2022/05/05 07:19:57;;;;;;;8.45;5.32;;;;;;;;;;5134622;27;20023;-51
2022/05/05 07:22:23;;;;;;;8.80;5.07;;;;;;;;;;5134396;27;20459;-52
2022/05/05 07:24:49;;;;;;;12.07;4.93;;;;;;;;;;5134688;27;20031;-54
2022/05/05 07:27:15;;;;;;;8.02;5.35;;;;;;;;;;5134598;27;20051;-51
2022/05/05 07:29:41;;;;;;;11.32;6.60;;;;;;;;;;5134348;27;20023;-51
2022/05/05 07:32:08;;;;;;;6.72;5.55;;;;;;;;;;5134577;27;20027;-51
2022/05/05 07:34:38;;;;;;;10.25;6.18;;;;;;;;;;5134832;27;20050;-51
2022/05/05 07:37:04;;;;;;;6.90;5.03;;;;;;;;;;5134193;27;20027;-51
2022/05/05 07:39:30;;;;;;;10.57;5.10;;;;;;;;;;5134454;27;20034;-50
2022/05/05 07:41:57;;;;;;;11.10;6.03;;;;;;;;;;5134353;27;20031;-51
2022/05/05 07:44:23;;;;;;;11.98;4.65;;;;;;;;;;5133960;28;20050;-51
2022/05/05 07:46:51;;;;;;;7.43;4.50;;;;;;;;;;5134353;28;20019;-54
2022/05/05 07:49:18;;;;;;;7.55;3.80;;;;;;;;;;5134479;28;20363;-51
2022/05/05 07:51:44;;;;;;;5.07;3.50;;;;;;;;;;5134267;28;20154;-54
2022/05/05 07:56:54;;;;;;;5.90;4.03;;;;;;;;;;5134491;28;20033;-53
2022/05/05 07:59:20;;;;;;;7.40;4.60;;;;;;;;;;5134461;28;20498;-53
2022/05/05 08:01:47;;;;;;;8.88;3.92;;;;;;;;;;5134164;28;20386;-53
2022/05/05 08:04:13;;;;;;;4.70;3.05;;;;;;;;;;5134420;28;20064;-51
2022/05/05 08:06:40;;;;;;;6.88;3.58;;;;;;;;;;5134722;28;20432;-55
2022/05/05 08:09:06;;;;;;;5.15;3.65;;;;;;;;;;5134409;28;20158;-54
2022/05/05 08:11:34;;;;;;;8.48;4.00;;;;;;;;;;5134091;28;20019;-55
2022/05/05 08:14:02;;;;;;;9.38;4.35;;;;;;;;;;5133882;28;20031;-51
2022/05/05 08:16:28;;;;;;;5.43;4.07;;;;;;;;;;5134143;28;20066;-50
2022/05/05 08:18:55;;;;;;;31.23;16.80;;;;;;;;;;5134093;28;20019;-51
2022/05/05 08:21:21;;;;;;;27.25;14.85;;;;;;;;;;5133836;28;20015;-56
2022/05/05 08:23:47;;;;;;;12.23;8.02;;;;;;;;;;5133884;28;20031;-56
2022/05/05 08:28:58;;;;;;;33.42;18.67;;;;;;;;;;5119074;28;20153;-55
2022/05/05 08:31:24;;;;;;;8.20;5.97;;;;;;;;;;5133769;28;20019;-55
2022/05/05 08:33:50;;;;;;;7.95;4.53;;;;;;;;;;5134029;28;20019;-54
2022/05/05 08:36:16;;;;;;;17.77;7.43;;;;;;;;;;5133989;28;20467;-57
2022/05/05 08:38:44;;;;;;;11.57;5.63;;;;;;;;;;5133927;28;20098;-53
2022/05/05 08:41:11;;;;;;;85.13;54.30;;;;;;;;;;5133766;28;20028;-60
2022/05/05 08:43:37;;;;;;;46.42;23.60;;;;;;;;;;5133746;28;20079;-57
2022/05/05 08:46:03;;;;;;;147.20;93.28;;;;;;;;;;5133826;28;20151;-53
2022/05/05 08:48:31;;;;;;;29.17;15.02;;;;;;;;;;5134583;27;20385;-58
2022/05/05 08:50:59;;;;;;;8.90;3.92;;;;;;;;;;5137375;27;20056;-56
2022/05/05 08:53:29;;;;;;;34.78;21.02;;;;;;;;;;5137320;27;20027;-56
2022/05/05 08:55:56;;;;;;;46.60;22.25;;;;;;;;;;5137368;27;20019;-58
2022/05/05 08:58:22;;;;;;;43.83;19.33;;;;;;;;;;5137707;27;20028;-57
2022/05/05 09:00:57;;;;;;;49.35;30.80;;;;;;;;;;5137377;27;20029;-57
2022/05/05 09:03:24;;;;;;;78.78;46.80;;;;;;;;;;5137269;27;20494;-56
2022/05/05 09:05:51;;;;;;;20.73;11.88;;;;;;;;;;5137452;27;20072;-56
2022/05/05 09:08:26;;;;;;;18.45;12.27;;;;;;;;;;5137251;27;20427;-56
2022/05/05 09:10:54;;;;;;;9.05;3.63;;;;;;;;;;5137357;27;20037;-56
2022/05/05 09:13:24;;;;;;;5.47;3.20;;;;;;;;;;5136978;27;20028;-58
2022/05/05 09:15:50;;;;;;;26.80;17.55;;;;;;;;;;5137143;27;20523;-57
2022/05/05 09:18:17;;;;;;;9.60;6.55;;;;;;;;;;5136963;27;20490;-56
2022/05/05 09:20:43;;;;;;;47.00;19.70;;;;;;;;;;5137041;27;20024;-59
2022/05/05 09:23:10;;;;;;;16.15;7.97;;;;;;;;;;5136737;27;20062;-58
2022/05/05 09:25:47;;;;;;;21.73;9.68;;;;;;;;;;5137039;27;20015;-59
2022/05/05 09:28:17;;;;;;;19.15;8.43;;;;;;;;;;5136813;27;20561;-57
2022/05/05 09:30:47;;;;;;;7.13;4.22;;;;;;;;;;5136809;27;20435;-57
2022/05/05 09:33:17;;;;;;;6.47;4.20;;;;;;;;;;5136929;27;20047;-59
2022/05/05 09:35:44;;;;;;;5.35;3.20;;;;;;;;;;5136443;27;20030;-59
2022/05/05 09:38:10;;;;;;;7.30;3.83;;;;;;;;;;5136860;27;20025;-57
2022/05/05 09:40:36;;;;;;;5.60;3.58;;;;;;;;;;5136640;27;20058;-55
2022/05/05 09:43:04;;;;;;;8.38;3.33;;;;;;;;;;5136613;27;20076;-56
2022/05/05 09:45:33;;;;;;;6.13;3.78;;;;;;;;;;5136257;27;20070;-54
2022/05/05 09:48:03;;;;;;;7.75;4.70;;;;;;;;;;5136701;27;20431;-54
2022/05/05 09:50:31;;;;;;;6.22;3.45;;;;;;;;;;5136182;27;20023;-55
2022/05/05 09:58:41;;;;;;;4.80;2.95;;;;;;;;;;5136361;27;20485;-55
2022/05/05 10:01:21;;;;;;;5.30;3.80;;;;;;;;;;5135983;27;20062;-55
2022/05/05 10:04:05;;;;;;;4.85;3.17;;;;;;;;;;5117302;27;20043;-55
2022/05/05 10:06:36;;;;;;;3.65;2.60;;;;;;;;;;5136030;27;20102;-59
2022/05/05 10:09:06;;;;;;;3.20;2.67;;;;;;;;;;5136115;27;20115;-54
2022/05/05 10:11:32;;;;;;;8.00;3.13;;;;;;;;;;5136043;27;20513;-55
2022/05/05 10:14:02;;;;;;;6.35;3.60;;;;;;;;;;5135809;27;20035;-59
2022/05/05 10:16:31;;;;;;;7.32;4.07;;;;;;;;;;5135902;27;20023;-54
2022/05/05 10:18:59;;;;;;;4.47;2.10;;;;;;;;;;5135740;27;20033;-58
2022/05/05 10:21:28;;;;;;;4.72;2.47;;;;;;;;;;5135696;27;20027;-54
2022/05/05 10:24:00;;;;;;;3.92;2.20;;;;;;;;;;5135866;27;20417;-59
2022/05/05 10:26:29;;;;;;;5.05;2.75;;;;;;;;;;5135799;27;20023;-59
2022/05/05 10:28:55;;;;;;;4.78;2.42;;;;;;;;;;5135773;27;20024;-60
2022/05/05 10:31:37;;;;;;;5.95;4.20;;;;;;;;;;5135602;27;20019;-59
2022/05/05 10:34:16;;;;;;;5.70;3.65;;;;;;;;;;5135565;27;20034;-55
2022/05/05 10:36:57;;;;;;;3.58;2.17;;;;;;;;;;5135624;27;20019;-55
2022/05/05 10:39:22;;;;;;;;;;;;;;;;;;5136234;27;20104;-55
2022/05/05 10:41:51;;;;;;;;;;;;;;;;;;5135695;27;19963;-55
2022/05/05 10:44:17;;;;;;;;;;;;;;;;;;5135469;27;20006;-54
2022/05/05 10:46:43;;;;;;;;;;;;;;;;;;5135676;27;19946;-55
2022/05/05 10:49:09;;;;;;;;;;;;;;;;;;5135485;27;19950;-54
2022/05/05 10:51:35;;;;;;;;;;;;;;;;;;5135693;27;20282;-54
2022/05/05 10:54:01;;;;;;;;;;;;;;;;;;5135521;27;20377;-55
2022/05/05 10:56:27;;;;;;;;;;;;;;;;;;5135511;27;19903;-62
2022/05/05 10:58:53;;;;;;;;;;;;;;;;;;5135717;27;19955;-59
2022/05/05 11:01:19;;;;;;;;;;;;;;;;;;5135428;27;20047;-60
2022/05/05 11:03:45;;;;;;;;;;;;;;;;;;5135277;27;20017;-58
2022/05/05 11:06:11;;;;;;;;;;;;;;;;;;5116316;27;20011;-56
2022/05/05 11:08:37;;;;;;;;;;;;;;;;;;5135201;27;19903;-56
2022/05/05 11:13:47;;;;;;;;;;;;;;;;;;5135126;27;19919;-60
2022/05/05 11:21:42;;;;;;;;;;;;;;;;;;5134945;27;19910;-51
2022/05/05 11:24:08;;;;;;;;;;;;;;;;;;5134991;27;19904;-50
2022/05/05 11:26:34;;;;;;;;;;;;;;;;;;5135121;27;20026;-49
2022/05/05 11:29:00;;;;;;;;;;;;;;;;;;5135054;27;20392;-51
2022/05/05 11:31:28;;;;;;;;;;;;;;;;;;5134818;27;19903;-51
2022/05/05 11:33:54;;;;;;;;;;;;;;;;;;5134890;27;19903;-53
2022/05/05 11:36:20;;;;;;;;;;;;;;;;;;5134816;27;19956;-56
2022/05/05 11:38:46;;;;;;;;;;;;;;;;;;5134827;27;19903;-52
2022/05/05 11:41:12;;;;;;;;;;;;;;;;;;5134880;27;19956;-53
2022/05/05 11:46:24;;;;;;;;;;;;;;;;;;5134718;28;19952;-55
2022/05/05 11:48:51;;;;;;;;;;;;;;;;;;5134796;28;19934;-55
2022/05/05 11:51:17;;;;;;;;;;;;;;;;;;5134730;28;20358;-56
2022/05/05 11:53:43;;;;;;;;;;;;;;;;;;5134754;28;19909;-57
2022/05/05 11:56:09;;;;;;;;;;;;;;;;;;5134873;28;19946;-57
2022/05/05 12:01:39;;;;;;;;;;;;;;;;;;5134587;28;20017;-57
2022/05/05 12:04:05;;;;;;;;;;;;;;;;;;5134787;28;19911;-58
2022/05/05 12:06:32;;;;;;;;;;;;;;;;;;5133653;28;19911;-55
2022/05/05 12:08:58;;;;;;;;;;;;;;;;;;5130400;28;19907;-58
2022/05/05 12:11:24;;;;;;;;;;;;;;;;;;5133091;28;20335;-53
2022/05/05 12:13:52;;;;;;;;;;;;;;;;;;5132933;28;20366;-58
2022/05/05 12:16:18;;;;;;;;;;;;;;;;;;5130362;28;19907;-59
2022/05/05 12:18:44;;;;;;;;;;;;;;;;;;5133166;28;19922;-59
2022/05/05 12:21:09;;;;;;;;;;;;;;;;;;5133087;28;19910;-58
2022/05/05 12:23:35;;;;;;;;;;;;;;;;;;5135504;27;20018;-53
2022/05/05 12:26:02;;;;;;;;;;;;;;;;;;5138395;27;19903;-60
2022/05/05 12:28:29;;;;;;;;;;;;;;;;;;5138551;27;19903;-51
2022/05/05 12:30:55;;;;;;;;;;;;;;;;;;5138489;27;19975;-59
2022/05/05 12:33:20;;;;;;;;;;;;;;;;;;5138600;27;20423;-57
2022/05/05 12:35:46;;;;;;;;;;;;;;;;;;5138183;27;19903;-56
2022/05/05 12:38:16;;;;;;;;;;;;;;;;;;5138316;27;19910;-60
2022/05/05 12:40:43;;;;;;;;;;;;;;;;;;5138200;27;19910;-56
2022/05/05 12:43:09;;;;;;;;;;;;;;;;;;5138053;27;19919;-56
2022/05/05 12:45:35;;;;;;;;;;;;;;;;;;5138144;27;19919;-56
2022/05/05 12:48:01;;;;;;;;;;;;;;;;;;5137977;27;19903;-58
2022/05/05 12:50:27;;;;;;;;;;;;;;;;;;5138176;27;19907;-60
2022/05/05 13:01:09;;;;;;;;;;;;;;;;;;5137436;27;19909;-58
2022/05/05 13:03:35;;;;;;;;;;;;;;;;;;5137539;27;20014;-59
2022/05/05 13:06:01;;;;;;;;;;;;;;;;;;5137324;27;19946;-60
2022/05/05 13:08:27;;;;;;;;;;;;;;;;;;5137619;27;19960;-52
2022/05/05 13:10:53;;;;;;;;;;;;;;;;;;5136451;27;19903;-51
2022/05/05 13:13:19;;;;;;;;;;;;;;;;;;5137312;27;19911;-61
2022/05/05 13:15:45;;;;;;;;;;;;;;;;;;5137453;27;19997;-51
2022/05/05 13:18:10;;;;;;;;;;;;;;;;;;5137256;27;19903;-59
2022/05/05 13:20:36;;;;;;;;;;;;;;;;;;5136603;27;20358;-61
2022/05/05 13:23:02;;;;;;;;;;;;;;;;;;5136813;27;19915;-57
2022/05/05 13:25:28;;;;;;;;;;;;;;;;;;5136756;27;19950;-59
2022/05/05 13:27:54;;;;;;;;;;;;;;;;;;5136776;27;19914;-58
2022/05/05 13:30:20;;;;;;;;;;;;;;;;;;5136715;27;19909;-53
2022/05/05 13:32:46;;;;;;;;;;;;;;;;;;5136611;27;19904;-51
2022/05/05 13:35:14;;;;;;;;;;;;;;;;;;5136166;27;19914;-54
2022/05/05 13:37:40;;;;;;;;;;;;;;;;;;5137251;27;19972;-54
2022/05/05 13:40:08;;;;;;;;;;;;;;;;;;5136866;27;20327;-55
2022/05/05 13:42:37;;;;;;;;;;;;;;;;;;5136756;27;19915;-53
2022/05/05 13:45:03;;;;;;;;;;;;;;;;;;5136654;27;20279;-54
2022/05/05 13:47:29;;;;;;;;;;;;;;;;;;5136697;27;19985;-54
2022/05/05 13:49:55;;;;;;;;;;;;;;;;;;5136686;27;19907;-52
2022/05/05 13:52:21;;;;;;;;;;;;;;;;;;5136965;27;19999;-54
2022/05/05 13:54:49;;;;;;;;;;;;;;;;;;5136910;27;20337;-52
2022/05/05 13:57:15;;;;;;;;;;;;;;;;;;5136675;27;20441;-54
2022/05/05 13:59:44;;;;;;;;;;;;;;;;;;5136820;27;19999;-55
2022/05/05 14:02:12;;;;;;;;;;;;;;;;;;5136620;27;19910;-49
2022/05/05 14:04:38;;;;;;;;;;;;;;;;;;5136288;27;19929;-52
2022/05/05 14:07:04;;;;;;;;;;;;;;;;;;5136548;27;20432;-49
2022/05/05 14:12:18;;;;;;;;;;;;;;;;;;5136385;27;19952;-55
2022/05/05 14:14:44;;;;;;;;;;;;;;;;;;5135865;27;19912;-48
2022/05/05 14:17:10;;;;;;;;;;;;;;;;;;5136227;27;20274;-49
2022/05/05 14:19:36;;;;;;;;;;;;;;;;;;5136128;27;19903;-54
2022/05/05 14:22:02;;;;;;;;;;;;;;;;;;5136057;27;19925;-58
2022/05/05 14:24:28;;;;;;;;;;;;;;;;;;5136105;27;19907;-61
2022/05/05 14:26:54;;;;;;;;;;;;;;;;;;5136185;27;19950;-61
2022/05/05 14:29:20;;;;;;;;;;;;;;;;;;5136003;27;19903;-61
2022/05/05 14:31:47;;;;;;;;;;;;;;;;;;5135911;27;19910;-60
2022/05/05 14:34:14;;;;;;;;;;;;;;;;;;5135845;27;19904;-60
2022/05/05 14:36:40;;;;;;;;;;;;;;;;;;5135917;27;19903;-55
2022/05/05 14:39:06;;;;;;;;;;;;;;;;;;5135919;27;19990;-50
2022/05/05 14:41:32;;;;;;;;;;;;;;;;;;5135454;27;19995;-65
2022/05/05 14:43:58;;;;;;;;;;;;;;;;;;5134993;27;19986;-61
2022/05/05 14:46:25;;;;;;;;;;;;;;;;;;5134302;27;19990;-60
2022/05/05 14:48:51;;;;;;;;;;;;;;;;;;5135078;27;19925;-50
2022/05/05 14:51:16;;;;;;;;;;;;;;;;;;5135077;27;20265;-63
2022/05/05 14:53:45;;;;;;;;;;;;;;;;;;5116016;27;20642;-57
2022/05/05 14:56:11;;;;;;;;;;;;;;;;;;5131747;27;19911;-60
2022/05/05 14:58:37;;;;;;;;;;;;;;;;;;5133970;27;19950;-63
2022/05/05 15:01:04;;;;;;;;;;;;;;;;;;5133969;27;19949;-63
2022/05/05 15:03:30;;;;;;;;;;;;;;;;;;5133996;27;19911;-60
2022/05/05 15:05:55;;;;;;;;;;;;;;;;;;5134501;27;19922;-52
2022/05/05 15:08:21;;;;;;;;;;;;;;;;;;5132171;27;19904;-61
2022/05/05 15:10:47;;;;;;;;;;;;;;;;;;5134892;27;19903;-49
2022/05/05 15:13:13;;;;;;;;;;;;;;;;;;5134752;27;19962;-56
2022/05/05 15:15:39;;;;;;;;;;;;;;;;;;5134622;27;19903;-57
2022/05/05 15:18:05;;;;;;;;;;;;;;;;;;5134498;27;19908;-50
2022/05/05 15:20:31;;;;;;;;;;;;;;;;;;5134549;27;20377;-59
2022/05/05 15:22:57;;;;;;;;;;;;;;;;;;5134279;27;19999;-59
2022/05/05 15:25:23;;;;;;;;;;;;;;;;;;5134711;27;20240;-62
2022/05/05 15:27:49;;;;;;;;;;;;;;;;;;5134571;27;20362;-52
2022/05/05 15:30:15;;;;;;;;;;;;;;;;;;5134542;27;20367;-56
2022/05/05 15:32:41;;;;;;;;;;;;;;;;;;5134405;27;19907;-60
2022/05/05 15:35:09;;;;;;;;;;;;;;;;;;5134456;27;19990;-61
2022/05/05 15:37:37;;;;;;;;;;;;;;;;;;5134372;27;20014;-56
2022/05/05 15:40:03;;;;;;;;;;;;;;;;;;5131948;27;20433;-58
2022/05/05 15:42:29;;;;;;;;;;;;;;;;;;5134227;27;19947;-58
2022/05/05 15:44:55;;;;;;;;;;;;;;;;;;5133768;28;19930;-56
2022/05/05 15:47:21;;;;;;;;;;;;;;;;;;5133936;28;20359;-66
2022/05/05 15:49:47;;;;;;;;;;;;;;;;;;5131767;28;19916;-56
2022/05/05 15:52:14;;;;;;;;;;;;;;;;;;5125115;28;20001;-54
2022/05/05 15:54:40;;;;;;;;;;;;;;;;;;5134119;28;20312;-56
2022/05/05 15:57:06;;;;;;;;;;;;;;;;;;5134172;27;20043;-57
2022/05/05 15:59:32;;;;;;;;;;;;;;;;;;5137987;27;19915;-58
2022/05/05 16:01:58;;;;;;;;;;;;;;;;;;5138266;27;20366;-53
2022/05/05 16:04:28;;;;;;;;;;;;;;;;;;5137772;27;19903;-54